25°C Temp
10°C Dewpoint
% Humidity
Temperature
14 KM/H
9 MPH
8 KTS
Calm
Due North

Wind Speed
Clear
Conditions
Pressure 1018.96 (hPa) - 30.09 (in)
Visibility 6.0 (mi) - 9.7 (km)

Current Conditions
EPKT
Location 6km (3.2mi)
Metar :EPKT 251200Z VRB08KT CAVOK 25/10 Q1019
Sat 25th May 14:00 pm

Airport
  Metar Aviation API Data Provided by https://www.checkwx.com/ CSS/SVG/PHP scripts by weather34.com © 2015-2024